Avery, California
Current Conditions -  °F | °C
As of 11:15 AM on Monday 22 Dec 2014 (Local Time) from KO22 Reporting Station
Clear Clear  
Wind Chill: 57°   Ceiling: Unl
Heat Index: 57°   Visibility: 10mi
Dew Point: 48°   Wind: 3mph
Humidity: 72%   Direction: 150°SSE
Pressure: 30.21"   Gusts: NA
Location:  38.2°N, 120.37°W
Report Text: KO22 221915Z AUTO 15003KT 10SM CLR 14/09 A3021 RMK AO1
Loading
Personal Weather Stations






























Interactive Weather Map New forecast layout! Learn more

10-Day Weather Forecast

Advertisements
Track Severe Weather on mobile